sensor_id;sensor_type;location;lat;lon;timestamp;P1;durP1;ratioP1;P2;durP2;ratioP2
72301;SDS011;60235;52.234;5.186;2022-10-13T00:01:53;20.42;;;6.63;;
72301;SDS011;60235;52.234;5.186;2022-10-13T00:04:19;18.27;;;7.10;;
72301;SDS011;60235;52.234;5.186;2022-10-13T00:06:45;20.00;;;7.07;;
72301;SDS011;60235;52.234;5.186;2022-10-13T00:09:11;22.13;;;7.90;;
72301;SDS011;60235;52.234;5.186;2022-10-13T00:11:37;20.25;;;7.63;;
72301;SDS011;60235;52.234;5.186;2022-10-13T00:14:03;18.60;;;8.00;;
72301;SDS011;60235;52.234;5.186;2022-10-13T00:16:30;21.50;;;7.50;;
72301;SDS011;60235;52.234;5.186;2022-10-13T00:18:56;19.40;;;7.55;;
72301;SDS011;60235;52.234;5.186;2022-10-13T00:21:23;17.60;;;6.97;;
72301;SDS011;60235;52.234;5.186;2022-10-13T00:23:50;16.08;;;7.15;;
72301;SDS011;60235;52.234;5.186;2022-10-13T00:26:16;16.80;;;7.47;;
72301;SDS011;60235;52.234;5.186;2022-10-13T00:28:43;22.55;;;8.00;;
72301;SDS011;60235;52.234;5.186;2022-10-13T00:31:19;20.73;;;7.28;;
72301;SDS011;60235;52.234;5.186;2022-10-13T00:33:45;17.23;;;7.00;;
72301;SDS011;60235;52.234;5.186;2022-10-13T00:36:13;19.58;;;7.53;;
72301;SDS011;60235;52.234;5.186;2022-10-13T00:38:39;18.95;;;7.90;;
72301;SDS011;60235;52.234;5.186;2022-10-13T00:41:05;19.10;;;7.72;;
72301;SDS011;60235;52.234;5.186;2022-10-13T00:46:16;21.10;;;8.63;;
72301;SDS011;60235;52.234;5.186;2022-10-13T00:48:42;17.23;;;7.30;;
72301;SDS011;60235;52.234;5.186;2022-10-13T00:51:09;18.85;;;8.02;;
72301;SDS011;60235;52.234;5.186;2022-10-13T00:53:36;20.65;;;7.90;;
72301;SDS011;60235;52.234;5.186;2022-10-13T00:56:03;16.08;;;7.68;;
72301;SDS011;60235;52.234;5.186;2022-10-13T00:58:30;22.15;;;9.13;;
72301;SDS011;60235;52.234;5.186;2022-10-13T01:00:57;18.67;;;7.63;;
72301;SDS011;60235;52.234;5.186;2022-10-13T01:03:24;20.20;;;8.40;;
72301;SDS011;60235;52.234;5.186;2022-10-13T01:05:51;19.70;;;7.95;;
72301;SDS011;60235;52.234;5.186;2022-10-13T01:08:18;23.13;;;9.45;;
72301;SDS011;60235;52.234;5.186;2022-10-13T01:13:33;22.00;;;8.38;;
72301;SDS011;60235;52.234;5.186;2022-10-13T01:16:05;28.13;;;9.27;;
72301;SDS011;60235;52.234;5.186;2022-10-13T01:26:21;20.48;;;9.40;;
72301;SDS011;60235;52.234;5.186;2022-10-13T01:31:20;21.73;;;8.57;;
72301;SDS011;60235;52.234;5.186;2022-10-13T01:36:23;22.85;;;8.55;;
72301;SDS011;60235;52.234;5.186;2022-10-13T01:39:08;20.05;;;9.43;;
72301;SDS011;60235;52.234;5.186;2022-10-13T01:41:36;17.85;;;8.90;;
72301;SDS011;60235;52.234;5.186;2022-10-13T01:44:10;19.48;;;7.78;;
72301;SDS011;60235;52.234;5.186;2022-10-13T01:46:40;23.17;;;8.65;;
72301;SDS011;60235;52.234;5.186;2022-10-13T01:49:09;22.88;;;9.00;;
72301;SDS011;60235;52.234;5.186;2022-10-13T01:51:35;20.40;;;8.40;;
72301;SDS011;60235;52.234;5.186;2022-10-13T01:54:01;22.65;;;9.50;;
72301;SDS011;60235;52.234;5.186;2022-10-13T01:56:28;22.42;;;8.85;;
72301;SDS011;60235;52.234;5.186;2022-10-13T01:58:54;24.50;;;9.35;;
72301;SDS011;60235;52.234;5.186;2022-10-13T02:06:30;19.23;;;9.57;;
72301;SDS011;60235;52.234;5.186;2022-10-13T02:11:44;22.92;;;9.25;;
72301;SDS011;60235;52.234;5.186;2022-10-13T02:14:15;22.10;;;9.60;;
72301;SDS011;60235;52.234;5.186;2022-10-13T02:16:43;22.75;;;9.15;;
72301;SDS011;60235;52.234;5.186;2022-10-13T02:19:11;26.05;;;10.32;;
72301;SDS011;60235;52.234;5.186;2022-10-13T02:21:38;21.55;;;10.40;;
72301;SDS011;60235;52.234;5.186;2022-10-13T02:24:05;24.08;;;10.18;;
72301;SDS011;60235;52.234;5.186;2022-10-13T02:26:32;25.52;;;9.93;;
72301;SDS011;60235;52.234;5.186;2022-10-13T02:28:59;23.25;;;11.13;;
72301;SDS011;60235;52.234;5.186;2022-10-13T02:31:25;24.45;;;9.95;;
72301;SDS011;60235;52.234;5.186;2022-10-13T02:33:51;23.20;;;10.20;;
72301;SDS011;60235;52.234;5.186;2022-10-13T02:36:17;26.73;;;11.70;;
72301;SDS011;60235;52.234;5.186;2022-10-13T02:38:43;26.08;;;11.05;;
72301;SDS011;60235;52.234;5.186;2022-10-13T02:41:09;24.17;;;10.20;;
72301;SDS011;60235;52.234;5.186;2022-10-13T02:43:36;23.10;;;11.30;;
72301;SDS011;60235;52.234;5.186;2022-10-13T02:46:02;24.88;;;10.55;;
72301;SDS011;60235;52.234;5.186;2022-10-13T02:48:28;23.20;;;10.45;;
72301;SDS011;60235;52.234;5.186;2022-10-13T02:50:54;23.77;;;10.68;;
72301;SDS011;60235;52.234;5.186;2022-10-13T02:53:20;28.90;;;11.10;;
72301;SDS011;60235;52.234;5.186;2022-10-13T02:55:46;28.05;;;11.15;;
72301;SDS011;60235;52.234;5.186;2022-10-13T02:58:12;26.33;;;11.77;;
72301;SDS011;60235;52.234;5.186;2022-10-13T03:00:38;28.45;;;11.68;;
72301;SDS011;60235;52.234;5.186;2022-10-13T03:03:04;27.30;;;10.50;;
72301;SDS011;60235;52.234;5.186;2022-10-13T03:05:31;24.83;;;12.23;;
72301;SDS011;60235;52.234;5.186;2022-10-13T03:07:57;30.02;;;12.05;;
72301;SDS011;60235;52.234;5.186;2022-10-13T03:10:23;29.17;;;12.98;;
72301;SDS011;60235;52.234;5.186;2022-10-13T03:12:49;23.50;;;11.43;;
72301;SDS011;60235;52.234;5.186;2022-10-13T03:15:15;26.50;;;11.18;;
72301;SDS011;60235;52.234;5.186;2022-10-13T03:17:41;27.35;;;12.52;;
72301;SDS011;60235;52.234;5.186;2022-10-13T03:20:08;28.73;;;11.75;;
72301;SDS011;60235;52.234;5.186;2022-10-13T03:22:34;29.40;;;11.27;;
72301;SDS011;60235;52.234;5.186;2022-10-13T03:25:00;26.88;;;11.23;;
72301;SDS011;60235;52.234;5.186;2022-10-13T03:27:26;32.85;;;12.90;;
72301;SDS011;60235;52.234;5.186;2022-10-13T03:29:52;25.95;;;11.25;;
72301;SDS011;60235;52.234;5.186;2022-10-13T03:32:18;27.20;;;11.88;;
72301;SDS011;60235;52.234;5.186;2022-10-13T03:34:44;30.48;;;12.18;;
72301;SDS011;60235;52.234;5.186;2022-10-13T03:37:10;26.60;;;11.82;;
72301;SDS011;60235;52.234;5.186;2022-10-13T03:39:36;24.25;;;10.85;;
72301;SDS011;60235;52.234;5.186;2022-10-13T03:42:02;26.60;;;11.75;;
72301;SDS011;60235;52.234;5.186;2022-10-13T03:44:29;26.95;;;11.05;;
72301;SDS011;60235;52.234;5.186;2022-10-13T03:46:55;25.77;;;11.30;;
72301;SDS011;60235;52.234;5.186;2022-10-13T03:49:21;27.02;;;11.73;;
72301;SDS011;60235;52.234;5.186;2022-10-13T03:51:47;29.88;;;12.00;;
72301;SDS011;60235;52.234;5.186;2022-10-13T03:54:13;26.63;;;11.85;;
72301;SDS011;60235;52.234;5.186;2022-10-13T03:56:39;26.73;;;11.77;;
72301;SDS011;60235;52.234;5.186;2022-10-13T03:59:06;26.10;;;12.02;;
72301;SDS011;60235;52.234;5.186;2022-10-13T04:01:32;27.60;;;12.35;;
72301;SDS011;60235;52.234;5.186;2022-10-13T04:03:59;30.92;;;11.88;;
72301;SDS011;60235;52.234;5.186;2022-10-13T04:06:28;30.33;;;12.45;;
72301;SDS011;60235;52.234;5.186;2022-10-13T04:08:55;27.30;;;11.73;;
72301;SDS011;60235;52.234;5.186;2022-10-13T04:11:21;30.73;;;12.85;;
72301;SDS011;60235;52.234;5.186;2022-10-13T04:13:48;27.73;;;11.52;;
72301;SDS011;60235;52.234;5.186;2022-10-13T04:16:15;26.42;;;11.65;;
72301;SDS011;60235;52.234;5.186;2022-10-13T04:18:41;26.15;;;11.85;;
72301;SDS011;60235;52.234;5.186;2022-10-13T04:21:08;25.65;;;11.52;;
72301;SDS011;60235;52.234;5.186;2022-10-13T04:23:34;27.42;;;11.57;;
72301;SDS011;60235;52.234;5.186;2022-10-13T04:26:00;28.55;;;11.98;;
72301;SDS011;60235;52.234;5.186;2022-10-13T04:28:27;25.73;;;11.27;;
72301;SDS011;60235;52.234;5.186;2022-10-13T04:30:53;26.38;;;11.25;;
72301;SDS011;60235;52.234;5.186;2022-10-13T04:33:19;25.00;;;11.63;;
72301;SDS011;60235;52.234;5.186;2022-10-13T04:35:45;23.10;;;11.65;;
72301;SDS011;60235;52.234;5.186;2022-10-13T04:38:11;28.40;;;11.65;;
72301;SDS011;60235;52.234;5.186;2022-10-13T04:40:37;27.00;;;11.57;;
72301;SDS011;60235;52.234;5.186;2022-10-13T04:43:03;26.50;;;11.63;;
72301;SDS011;60235;52.234;5.186;2022-10-13T04:45:29;27.08;;;11.75;;
72301;SDS011;60235;52.234;5.186;2022-10-13T04:47:55;25.65;;;10.35;;
72301;SDS011;60235;52.234;5.186;2022-10-13T04:50:21;27.55;;;11.23;;
72301;SDS011;60235;52.234;5.186;2022-10-13T04:52:47;32.25;;;12.40;;
72301;SDS011;60235;52.234;5.186;2022-10-13T04:55:13;28.20;;;12.07;;
72301;SDS011;60235;52.234;5.186;2022-10-13T04:57:39;35.38;;;11.70;;
72301;SDS011;60235;52.234;5.186;2022-10-13T05:00:05;24.08;;;11.20;;
72301;SDS011;60235;52.234;5.186;2022-10-13T05:02:33;26.35;;;11.85;;
72301;SDS011;60235;52.234;5.186;2022-10-13T05:04:59;30.33;;;12.85;;
72301;SDS011;60235;52.234;5.186;2022-10-13T05:07:25;26.60;;;11.85;;
72301;SDS011;60235;52.234;5.186;2022-10-13T05:09:51;29.73;;;11.70;;
72301;SDS011;60235;52.234;5.186;2022-10-13T05:12:17;24.63;;;11.75;;
72301;SDS011;60235;52.234;5.186;2022-10-13T05:14:43;33.42;;;12.32;;
72301;SDS011;60235;52.234;5.186;2022-10-13T05:17:09;31.23;;;12.57;;
72301;SDS011;60235;52.234;5.186;2022-10-13T05:19:35;29.10;;;11.88;;
72301;SDS011;60235;52.234;5.186;2022-10-13T05:22:01;25.13;;;11.40;;
72301;SDS011;60235;52.234;5.186;2022-10-13T05:24:27;37.30;;;12.85;;
72301;SDS011;60235;52.234;5.186;2022-10-13T05:27:03;29.70;;;12.60;;
72301;SDS011;60235;52.234;5.186;2022-10-13T05:29:30;28.90;;;11.77;;
72301;SDS011;60235;52.234;5.186;2022-10-13T05:31:56;29.27;;;12.75;;
72301;SDS011;60235;52.234;5.186;2022-10-13T05:34:22;30.05;;;12.50;;
72301;SDS011;60235;52.234;5.186;2022-10-13T05:36:48;31.67;;;12.68;;
72301;SDS011;60235;52.234;5.186;2022-10-13T05:39:14;25.77;;;11.38;;
72301;SDS011;60235;52.234;5.186;2022-10-13T05:41:40;30.38;;;12.48;;
72301;SDS011;60235;52.234;5.186;2022-10-13T05:44:06;34.13;;;12.75;;
72301;SDS011;60235;52.234;5.186;2022-10-13T05:46:33;31.23;;;12.25;;
72301;SDS011;60235;52.234;5.186;2022-10-13T05:48:59;32.22;;;12.95;;
72301;SDS011;60235;52.234;5.186;2022-10-13T05:51:32;36.40;;;13.63;;
72301;SDS011;60235;52.234;5.186;2022-10-13T05:54:01;37.08;;;13.32;;
72301;SDS011;60235;52.234;5.186;2022-10-13T05:58:56;29.77;;;12.45;;
72301;SDS011;60235;52.234;5.186;2022-10-13T06:01:24;33.85;;;13.82;;
72301;SDS011;60235;52.234;5.186;2022-10-13T06:03:52;32.03;;;13.38;;
72301;SDS011;60235;52.234;5.186;2022-10-13T06:06:18;35.35;;;13.55;;
72301;SDS011;60235;52.234;5.186;2022-10-13T06:08:44;27.63;;;13.48;;
72301;SDS011;60235;52.234;5.186;2022-10-13T06:11:10;32.42;;;14.27;;
72301;SDS011;60235;52.234;5.186;2022-10-13T06:13:36;31.33;;;12.73;;
72301;SDS011;60235;52.234;5.186;2022-10-13T06:16:02;30.45;;;13.25;;
72301;SDS011;60235;52.234;5.186;2022-10-13T06:18:28;30.10;;;12.65;;
72301;SDS011;60235;52.234;5.186;2022-10-13T06:20:54;30.15;;;12.68;;
72301;SDS011;60235;52.234;5.186;2022-10-13T06:23:20;33.88;;;13.27;;
72301;SDS011;60235;52.234;5.186;2022-10-13T06:25:50;25.92;;;11.68;;
72301;SDS011;60235;52.234;5.186;2022-10-13T06:28:17;31.08;;;12.73;;
72301;SDS011;60235;52.234;5.186;2022-10-13T06:30:43;31.48;;;12.90;;
72301;SDS011;60235;52.234;5.186;2022-10-13T06:33:13;29.58;;;12.25;;
72301;SDS011;60235;52.234;5.186;2022-10-13T06:35:39;33.63;;;12.30;;
72301;SDS011;60235;52.234;5.186;2022-10-13T06:38:05;28.00;;;12.48;;
72301;SDS011;60235;52.234;5.186;2022-10-13T06:40:31;35.38;;;13.50;;
72301;SDS011;60235;52.234;5.186;2022-10-13T06:42:57;37.10;;;13.52;;
72301;SDS011;60235;52.234;5.186;2022-10-13T06:45:23;36.28;;;13.57;;
72301;SDS011;60235;52.234;5.186;2022-10-13T06:47:51;34.03;;;13.85;;
72301;SDS011;60235;52.234;5.186;2022-10-13T06:50:17;31.00;;;13.00;;
72301;SDS011;60235;52.234;5.186;2022-10-13T06:52:43;41.80;;;13.35;;
72301;SDS011;60235;52.234;5.186;2022-10-13T06:55:09;31.85;;;13.50;;
72301;SDS011;60235;52.234;5.186;2022-10-13T06:57:35;39.05;;;13.50;;
72301;SDS011;60235;52.234;5.186;2022-10-13T07:00:02;39.90;;;14.20;;
72301;SDS011;60235;52.234;5.186;2022-10-13T07:02:29;31.70;;;13.43;;
72301;SDS011;60235;52.234;5.186;2022-10-13T07:04:55;32.92;;;13.88;;
72301;SDS011;60235;52.234;5.186;2022-10-13T07:07:21;37.30;;;15.60;;
72301;SDS011;60235;52.234;5.186;2022-10-13T07:09:47;41.30;;;13.98;;
72301;SDS011;60235;52.234;5.186;2022-10-13T07:12:13;35.10;;;14.48;;
72301;SDS011;60235;52.234;5.186;2022-10-13T07:14:39;36.65;;;14.10;;
72301;SDS011;60235;52.234;5.186;2022-10-13T07:17:05;31.05;;;13.55;;
72301;SDS011;60235;52.234;5.186;2022-10-13T07:19:32;40.10;;;14.43;;
72301;SDS011;60235;52.234;5.186;2022-10-13T07:21:58;40.50;;;15.48;;
72301;SDS011;60235;52.234;5.186;2022-10-13T07:24:24;34.75;;;14.45;;
72301;SDS011;60235;52.234;5.186;2022-10-13T07:26:50;34.33;;;14.65;;
72301;SDS011;60235;52.234;5.186;2022-10-13T07:29:16;38.85;;;16.08;;
72301;SDS011;60235;52.234;5.186;2022-10-13T07:31:42;44.35;;;18.05;;
72301;SDS011;60235;52.234;5.186;2022-10-13T07:34:09;43.63;;;16.55;;
72301;SDS011;60235;52.234;5.186;2022-10-13T07:36:35;45.10;;;16.73;;
72301;SDS011;60235;52.234;5.186;2022-10-13T07:39:04;41.20;;;17.08;;
72301;SDS011;60235;52.234;5.186;2022-10-13T07:41:31;44.67;;;17.20;;
72301;SDS011;60235;52.234;5.186;2022-10-13T07:43:57;49.28;;;18.42;;
72301;SDS011;60235;52.234;5.186;2022-10-13T07:46:23;55.42;;;19.17;;
72301;SDS011;60235;52.234;5.186;2022-10-13T07:48:50;43.95;;;18.63;;
72301;SDS011;60235;52.234;5.186;2022-10-13T07:51:17;50.75;;;19.17;;
72301;SDS011;60235;52.234;5.186;2022-10-13T07:53:43;47.00;;;19.50;;
72301;SDS011;60235;52.234;5.186;2022-10-13T07:56:11;43.35;;;18.30;;
72301;SDS011;60235;52.234;5.186;2022-10-13T07:58:38;47.13;;;17.38;;
72301;SDS011;60235;52.234;5.186;2022-10-13T08:01:05;47.35;;;18.88;;
72301;SDS011;60235;52.234;5.186;2022-10-13T08:03:31;46.60;;;18.63;;
72301;SDS011;60235;52.234;5.186;2022-10-13T08:05:58;46.38;;;19.10;;
72301;SDS011;60235;52.234;5.186;2022-10-13T08:08:24;45.03;;;20.20;;
72301;SDS011;60235;52.234;5.186;2022-10-13T08:10:51;47.25;;;19.13;;
72301;SDS011;60235;52.234;5.186;2022-10-13T08:13:17;39.92;;;18.58;;
72301;SDS011;60235;52.234;5.186;2022-10-13T08:15:43;51.20;;;19.60;;
72301;SDS011;60235;52.234;5.186;2022-10-13T08:18:10;50.45;;;19.58;;
72301;SDS011;60235;52.234;5.186;2022-10-13T08:20:40;52.30;;;20.98;;
72301;SDS011;60235;52.234;5.186;2022-10-13T08:23:06;45.67;;;19.60;;
72301;SDS011;60235;52.234;5.186;2022-10-13T08:25:36;46.50;;;20.40;;
72301;SDS011;60235;52.234;5.186;2022-10-13T08:28:03;43.67;;;18.88;;
72301;SDS011;60235;52.234;5.186;2022-10-13T08:30:29;44.70;;;20.25;;
72301;SDS011;60235;52.234;5.186;2022-10-13T08:32:55;42.75;;;18.55;;
72301;SDS011;60235;52.234;5.186;2022-10-13T08:35:21;52.25;;;20.60;;
72301;SDS011;60235;52.234;5.186;2022-10-13T08:37:47;49.30;;;21.30;;
72301;SDS011;60235;52.234;5.186;2022-10-13T08:40:17;42.70;;;18.95;;
72301;SDS011;60235;52.234;5.186;2022-10-13T08:42:44;41.60;;;19.15;;
72301;SDS011;60235;52.234;5.186;2022-10-13T08:45:18;40.80;;;18.38;;
72301;SDS011;60235;52.234;5.186;2022-10-13T08:47:50;48.08;;;19.50;;
72301;SDS011;60235;52.234;5.186;2022-10-13T08:50:19;42.60;;;18.58;;
72301;SDS011;60235;52.234;5.186;2022-10-13T08:52:53;39.35;;;18.75;;
72301;SDS011;60235;52.234;5.186;2022-10-13T08:55:22;44.38;;;19.67;;
72301;SDS011;60235;52.234;5.186;2022-10-13T08:57:48;37.70;;;17.75;;
72301;SDS011;60235;52.234;5.186;2022-10-13T09:00:15;40.90;;;18.50;;
72301;SDS011;60235;52.234;5.186;2022-10-13T09:02:41;35.80;;;17.85;;
72301;SDS011;60235;52.234;5.186;2022-10-13T09:05:09;36.42;;;17.33;;
72301;SDS011;60235;52.234;5.186;2022-10-13T09:07:37;38.47;;;17.05;;
72301;SDS011;60235;52.234;5.186;2022-10-13T09:10:04;37.85;;;16.98;;
72301;SDS011;60235;52.234;5.186;2022-10-13T09:12:31;38.75;;;15.88;;
72301;SDS011;60235;52.234;5.186;2022-10-13T09:15:08;35.70;;;17.15;;
72301;SDS011;60235;52.234;5.186;2022-10-13T09:17:35;35.03;;;16.30;;
72301;SDS011;60235;52.234;5.186;2022-10-13T09:20:06;39.40;;;16.83;;
72301;SDS011;60235;52.234;5.186;2022-10-13T09:22:33;39.97;;;16.75;;
72301;SDS011;60235;52.234;5.186;2022-10-13T09:30:32;42.50;;;18.35;;
72301;SDS011;60235;52.234;5.186;2022-10-13T09:35:36;38.95;;;19.40;;
72301;SDS011;60235;52.234;5.186;2022-10-13T09:40:56;41.08;;;19.70;;
72301;SDS011;60235;52.234;5.186;2022-10-13T09:45:55;39.15;;;18.60;;
72301;SDS011;60235;52.234;5.186;2022-10-13T09:48:26;39.00;;;18.40;;
72301;SDS011;60235;52.234;5.186;2022-10-13T09:50:53;38.67;;;18.85;;
72301;SDS011;60235;52.234;5.186;2022-10-13T09:53:23;35.92;;;18.52;;
72301;SDS011;60235;52.234;5.186;2022-10-13T09:55:54;36.35;;;18.38;;
72301;SDS011;60235;52.234;5.186;2022-10-13T09:58:31;36.78;;;16.92;;
72301;SDS011;60235;52.234;5.186;2022-10-13T10:00:59;37.92;;;17.55;;
72301;SDS011;60235;52.234;5.186;2022-10-13T10:03:26;33.15;;;15.75;;
72301;SDS011;60235;52.234;5.186;2022-10-13T10:06:01;34.50;;;17.30;;
72301;SDS011;60235;52.234;5.186;2022-10-13T10:11:17;32.80;;;16.38;;
72301;SDS011;60235;52.234;5.186;2022-10-13T10:13:44;32.13;;;15.70;;
72301;SDS011;60235;52.234;5.186;2022-10-13T10:16:29;33.17;;;16.52;;
72301;SDS011;60235;52.234;5.186;2022-10-13T10:19:02;32.55;;;15.88;;
72301;SDS011;60235;52.234;5.186;2022-10-13T10:24:16;32.20;;;15.52;;
72301;SDS011;60235;52.234;5.186;2022-10-13T10:42:05;28.55;;;13.60;;
72301;SDS011;60235;52.234;5.186;2022-10-13T10:44:34;29.92;;;14.95;;
72301;SDS011;60235;52.234;5.186;2022-10-13T10:47:03;27.70;;;14.15;;
72301;SDS011;60235;52.234;5.186;2022-10-13T10:49:34;28.00;;;14.18;;
72301;SDS011;60235;52.234;5.186;2022-10-13T10:52:07;28.98;;;14.07;;
72301;SDS011;60235;52.234;5.186;2022-10-13T10:57:03;24.73;;;12.82;;
72301;SDS011;60235;52.234;5.186;2022-10-13T11:17:29;29.15;;;13.40;;
72301;SDS011;60235;52.234;5.186;2022-10-13T11:19:56;28.98;;;12.95;;
72301;SDS011;60235;52.234;5.186;2022-10-13T11:22:31;26.65;;;13.10;;
72301;SDS011;60235;52.234;5.186;2022-10-13T11:25:02;27.67;;;13.25;;
72301;SDS011;60235;52.234;5.186;2022-10-13T11:55:20;24.98;;;13.98;;
72301;SDS011;60235;52.234;5.186;2022-10-13T11:57:50;27.40;;;13.27;;
72301;SDS011;60235;52.234;5.186;2022-10-13T12:00:17;30.25;;;12.35;;
72301;SDS011;60235;52.234;5.186;2022-10-13T12:02:47;24.30;;;12.93;;
72301;SDS011;60235;52.234;5.186;2022-10-13T12:05:24;25.38;;;12.07;;
72301;SDS011;60235;52.234;5.186;2022-10-13T12:07:51;26.02;;;12.00;;
72301;SDS011;60235;52.234;5.186;2022-10-13T12:10:51;22.00;;;12.07;;
72301;SDS011;60235;52.234;5.186;2022-10-13T12:13:20;22.95;;;12.13;;
72301;SDS011;60235;52.234;5.186;2022-10-13T12:15:47;30.15;;;12.95;;
72301;SDS011;60235;52.234;5.186;2022-10-13T12:18:18;21.55;;;12.63;;
72301;SDS011;60235;52.234;5.186;2022-10-13T12:20:50;23.75;;;11.65;;
72301;SDS011;60235;52.234;5.186;2022-10-13T12:23:16;25.38;;;12.70;;
72301;SDS011;60235;52.234;5.186;2022-10-13T12:25:42;27.35;;;12.55;;
72301;SDS011;60235;52.234;5.186;2022-10-13T12:30:37;28.50;;;14.13;;
72301;SDS011;60235;52.234;5.186;2022-10-13T12:33:13;30.73;;;12.30;;
72301;SDS011;60235;52.234;5.186;2022-10-13T12:35:41;26.73;;;13.90;;
72301;SDS011;60235;52.234;5.186;2022-10-13T12:38:12;25.63;;;13.50;;
72301;SDS011;60235;52.234;5.186;2022-10-13T12:40:40;30.55;;;13.38;;
72301;SDS011;60235;52.234;5.186;2022-10-13T12:43:06;26.35;;;13.15;;
72301;SDS011;60235;52.234;5.186;2022-10-13T12:45:34;27.55;;;13.98;;
72301;SDS011;60235;52.234;5.186;2022-10-13T12:48:00;31.65;;;13.82;;
72301;SDS011;60235;52.234;5.186;2022-10-13T12:53:00;26.83;;;13.23;;
72301;SDS011;60235;52.234;5.186;2022-10-13T12:55:27;29.70;;;12.93;;
72301;SDS011;60235;52.234;5.186;2022-10-13T12:57:53;25.92;;;12.93;;
72301;SDS011;60235;52.234;5.186;2022-10-13T13:00:27;28.73;;;14.80;;
72301;SDS011;60235;52.234;5.186;2022-10-13T13:03:00;34.65;;;15.63;;
72301;SDS011;60235;52.234;5.186;2022-10-13T13:05:30;33.15;;;14.38;;
72301;SDS011;60235;52.234;5.186;2022-10-13T13:07:56;36.95;;;14.63;;
72301;SDS011;60235;52.234;5.186;2022-10-13T13:10:22;28.05;;;13.80;;
72301;SDS011;60235;52.234;5.186;2022-10-13T13:12:49;29.85;;;13.13;;
72301;SDS011;60235;52.234;5.186;2022-10-13T13:15:16;30.23;;;13.68;;
72301;SDS011;60235;52.234;5.186;2022-10-13T13:17:42;31.88;;;12.43;;
72301;SDS011;60235;52.234;5.186;2022-10-13T13:23:04;29.55;;;12.98;;
72301;SDS011;60235;52.234;5.186;2022-10-13T13:25:30;27.48;;;12.20;;
72301;SDS011;60235;52.234;5.186;2022-10-13T13:27:56;32.35;;;13.68;;
72301;SDS011;60235;52.234;5.186;2022-10-13T13:30:22;28.48;;;12.65;;
72301;SDS011;60235;52.234;5.186;2022-10-13T13:32:49;28.40;;;12.20;;
72301;SDS011;60235;52.234;5.186;2022-10-13T13:35:15;33.03;;;11.90;;
72301;SDS011;60235;52.234;5.186;2022-10-13T13:37:44;22.98;;;10.88;;
72301;SDS011;60235;52.234;5.186;2022-10-13T13:40:22;23.95;;;11.02;;
72301;SDS011;60235;52.234;5.186;2022-10-13T13:42:48;18.02;;;8.57;;
72301;SDS011;60235;52.234;5.186;2022-10-13T13:45:17;24.13;;;10.07;;
72301;SDS011;60235;52.234;5.186;2022-10-13T13:47:45;22.33;;;9.57;;
72301;SDS011;60235;52.234;5.186;2022-10-13T13:50:12;17.92;;;9.45;;
72301;SDS011;60235;52.234;5.186;2022-10-13T13:52:40;14.88;;;7.88;;
72301;SDS011;60235;52.234;5.186;2022-10-13T13:55:06;25.33;;;7.75;;
72301;SDS011;60235;52.234;5.186;2022-10-13T13:57:32;13.50;;;7.00;;
72301;SDS011;60235;52.234;5.186;2022-10-13T13:59:58;14.32;;;7.35;;
72301;SDS011;60235;52.234;5.186;2022-10-13T14:02:24;12.15;;;6.20;;
72301;SDS011;60235;52.234;5.186;2022-10-13T14:04:50;13.30;;;6.72;;
72301;SDS011;60235;52.234;5.186;2022-10-13T14:07:17;13.07;;;6.18;;
72301;SDS011;60235;52.234;5.186;2022-10-13T14:09:43;12.25;;;6.45;;
72301;SDS011;60235;52.234;5.186;2022-10-13T14:12:10;18.33;;;7.35;;
72301;SDS011;60235;52.234;5.186;2022-10-13T14:14:36;13.07;;;6.72;;
72301;SDS011;60235;52.234;5.186;2022-10-13T14:17:02;12.82;;;6.50;;
72301;SDS011;60235;52.234;5.186;2022-10-13T14:19:29;12.43;;;6.40;;
72301;SDS011;60235;52.234;5.186;2022-10-13T14:21:55;11.77;;;5.95;;
72301;SDS011;60235;52.234;5.186;2022-10-13T14:24:21;13.13;;;6.65;;
72301;SDS011;60235;52.234;5.186;2022-10-13T14:26:47;11.48;;;5.93;;
72301;SDS011;60235;52.234;5.186;2022-10-13T14:29:13;12.18;;;5.70;;
72301;SDS011;60235;52.234;5.186;2022-10-13T14:31:40;12.70;;;6.30;;
72301;SDS011;60235;52.234;5.186;2022-10-13T14:34:06;16.83;;;8.20;;
72301;SDS011;60235;52.234;5.186;2022-10-13T14:36:32;15.15;;;7.70;;
72301;SDS011;60235;52.234;5.186;2022-10-13T14:38:58;16.08;;;7.85;;
72301;SDS011;60235;52.234;5.186;2022-10-13T14:41:24;13.57;;;6.95;;
72301;SDS011;60235;52.234;5.186;2022-10-13T14:43:53;14.77;;;7.40;;
72301;SDS011;60235;52.234;5.186;2022-10-13T14:46:19;15.45;;;8.02;;
72301;SDS011;60235;52.234;5.186;2022-10-13T14:48:45;16.25;;;8.40;;
72301;SDS011;60235;52.234;5.186;2022-10-13T14:51:12;16.63;;;8.27;;
72301;SDS011;60235;52.234;5.186;2022-10-13T14:53:38;14.30;;;6.97;;
72301;SDS011;60235;52.234;5.186;2022-10-13T14:58:40;15.90;;;7.97;;
72301;SDS011;60235;52.234;5.186;2022-10-13T15:01:06;17.35;;;8.88;;
72301;SDS011;60235;52.234;5.186;2022-10-13T15:03:32;15.65;;;7.68;;
72301;SDS011;60235;52.234;5.186;2022-10-13T15:05:58;16.75;;;8.32;;
72301;SDS011;60235;52.234;5.186;2022-10-13T15:08:24;15.77;;;8.23;;
72301;SDS011;60235;52.234;5.186;2022-10-13T15:10:59;17.02;;;8.45;;
72301;SDS011;60235;52.234;5.186;2022-10-13T15:13:26;17.17;;;8.30;;
72301;SDS011;60235;52.234;5.186;2022-10-13T15:15:52;15.88;;;7.97;;
72301;SDS011;60235;52.234;5.186;2022-10-13T15:18:18;17.70;;;8.68;;
72301;SDS011;60235;52.234;5.186;2022-10-13T15:20:44;16.80;;;7.90;;
72301;SDS011;60235;52.234;5.186;2022-10-13T15:23:11;15.63;;;7.28;;
72301;SDS011;60235;52.234;5.186;2022-10-13T15:25:37;15.38;;;6.55;;
72301;SDS011;60235;52.234;5.186;2022-10-13T15:28:03;14.48;;;6.97;;
72301;SDS011;60235;52.234;5.186;2022-10-13T15:30:33;13.27;;;6.60;;
72301;SDS011;60235;52.234;5.186;2022-10-13T15:32:59;12.32;;;6.10;;
72301;SDS011;60235;52.234;5.186;2022-10-13T15:35:28;14.40;;;6.75;;
72301;SDS011;60235;52.234;5.186;2022-10-13T15:37:54;15.43;;;7.28;;
72301;SDS011;60235;52.234;5.186;2022-10-13T15:40:20;16.13;;;7.45;;
72301;SDS011;60235;52.234;5.186;2022-10-13T15:42:46;13.70;;;6.75;;
72301;SDS011;60235;52.234;5.186;2022-10-13T15:45:12;12.30;;;6.60;;
72301;SDS011;60235;52.234;5.186;2022-10-13T15:47:38;11.93;;;6.40;;
72301;SDS011;60235;52.234;5.186;2022-10-13T15:50:04;12.85;;;6.65;;
72301;SDS011;60235;52.234;5.186;2022-10-13T15:52:30;13.57;;;6.22;;
72301;SDS011;60235;52.234;5.186;2022-10-13T15:54:56;15.20;;;6.88;;
72301;SDS011;60235;52.234;5.186;2022-10-13T15:57:22;13.88;;;7.50;;
72301;SDS011;60235;52.234;5.186;2022-10-13T15:59:48;14.75;;;7.68;;
72301;SDS011;60235;52.234;5.186;2022-10-13T16:02:14;14.18;;;6.88;;
72301;SDS011;60235;52.234;5.186;2022-10-13T16:04:40;13.55;;;6.78;;
72301;SDS011;60235;52.234;5.186;2022-10-13T16:07:06;15.90;;;8.02;;
72301;SDS011;60235;52.234;5.186;2022-10-13T16:09:32;15.55;;;7.22;;
72301;SDS011;60235;52.234;5.186;2022-10-13T16:11:58;16.02;;;7.25;;
72301;SDS011;60235;52.234;5.186;2022-10-13T16:14:24;17.17;;;8.60;;
72301;SDS011;60235;52.234;5.186;2022-10-13T16:16:50;15.10;;;7.43;;
72301;SDS011;60235;52.234;5.186;2022-10-13T16:19:15;13.95;;;7.78;;
72301;SDS011;60235;52.234;5.186;2022-10-13T16:21:41;16.15;;;7.40;;
72301;SDS011;60235;52.234;5.186;2022-10-13T16:24:07;15.07;;;6.78;;
72301;SDS011;60235;52.234;5.186;2022-10-13T16:26:33;14.15;;;6.80;;
72301;SDS011;60235;52.234;5.186;2022-10-13T16:28:59;13.98;;;7.07;;